Time;durP1;ratioP1;P1;durP2;ratioP2;P2;SDS_P1;SDS_P2;PMS_P1;PMS_P2;Temp;Humidity;BMP_temperature;BMP_pressure;BME280_temperature;BME280_humidity;BME280_pressure;Samples;Min_cycle;Max_cycle;Signal;HPM_P1;HPM_P2
2022/06/05 00:00:12;;;;;;;3.00;2.80;;;;;;;21.10;64.13;100763.69;469955;113;922973;-76
2022/06/05 00:01:21;;;;;;;3.11;2.67;;;;;;;21.10;64.11;100771.17;469028;113;922826;-77
2022/06/05 00:02:48;;;;;;;5.28;3.01;;;;;;;21.07;64.14;100767.01;469643;113;923192;-76
2022/06/05 00:03:54;;;;;;;3.35;2.91;;;;;;;21.07;64.11;100767.01;469747;113;923003;-76
2022/06/05 00:05:01;;;;;;;6.01;3.39;;;;;;;21.06;64.08;100765.34;469705;113;922578;-76
2022/06/05 00:06:16;;;;;;;3.01;2.81;;;;;;;21.05;64.10;100763.70;469732;112;922775;-77
2022/06/05 00:07:38;;;;;;;2.79;2.51;;;;;;;21.04;64.03;100762.03;469109;113;922677;-76
2022/06/05 00:09:04;;;;;;;12.58;2.97;;;;;;;21.04;63.98;100764.80;469729;113;922704;-76
2022/06/05 00:10:29;;;;;;;2.90;2.63;;;;;;;21.02;63.95;100764.24;469744;113;922461;-76
2022/06/05 00:11:48;;;;;;;2.93;2.63;;;;;;;20.99;63.99;100762.05;466140;113;922537;-76
2022/06/05 00:13:11;;;;;;;3.46;2.31;;;;;;;20.97;63.96;100768.97;458811;115;922679;-76
2022/06/05 00:14:14;;;;;;;4.29;2.54;;;;;;;20.96;63.89;100765.36;459140;115;922633;-77
2022/06/05 00:15:17;;;;;;;3.28;2.32;;;;;;;;;;459335;115;922589;-75
2022/06/05 00:16:24;;;;;;;3.12;2.50;;;;;;;20.94;63.78;100758.45;459370;115;923179;-75
2022/06/05 00:17:27;;;;;;;3.37;2.41;;;;;;;20.91;63.72;100759.83;459120;115;922561;-75
2022/06/05 00:18:35;;;;;;;2.45;2.28;;;;;;;20.90;63.73;100760.92;459331;115;922651;-76
2022/06/05 00:19:42;;;;;;;2.12;1.95;;;;;;;20.89;63.68;100759.30;459166;115;922608;-76
2022/06/05 00:20:45;;;;;;;3.02;2.31;;;;;;;20.89;63.71;100752.91;459101;115;922522;-75
2022/06/05 00:21:49;;;;;;;3.10;2.29;;;;;;;20.89;63.64;100759.30;459332;115;922538;-75
2022/06/05 00:22:52;;;;;;;3.04;2.26;;;;;;;20.88;63.63;100768.71;459226;115;922603;-75
2022/06/05 00:23:55;;;;;;;4.57;2.07;;;;;;;20.87;63.84;100752.34;459374;115;922563;-76
2022/06/05 00:24:58;;;;;;;2.74;2.16;;;;;;;20.87;63.84;100752.34;459330;115;922991;-76
2022/06/05 00:26:20;;;;;;;2.57;2.11;;;;;;;20.87;63.46;100755.95;459695;115;922599;-76
2022/06/05 00:27:37;;;;;;;2.49;2.08;;;;;;;20.98;63.47;100754.00;482026;110;949039;-74
2022/06/05 00:29:17;;;;;;;2.19;2.04;;;;;;;20.97;63.40;100752.33;481792;110;947862;-76
2022/06/05 00:30:42;;;;;;;3.51;2.12;;;;;;;20.87;63.36;100753.19;465289;114;922628;-76
2022/06/05 00:31:51;;;;;;;2.23;1.99;;;;;;;20.83;63.37;100754.86;465023;114;923037;-76
2022/06/05 00:33:07;;;;;;;2.79;1.83;;;;;;;20.82;63.34;100758.73;465191;114;922544;-76
2022/06/05 00:34:11;;;;;;;3.80;1.96;;;;;;;20.81;63.32;100751.52;465247;114;922850;-76
2022/06/05 00:35:17;;;;;;;2.21;2.04;;;;;;;20.83;63.27;100748.48;465494;114;922924;-76
2022/06/05 00:36:42;;;;;;;2.34;2.14;;;;;;;20.82;63.30;100747.65;465291;114;922653;-76
2022/06/05 00:37:52;;;;;;;3.17;2.17;;;;;;;20.81;63.25;100751.52;465234;114;922655;-76
2022/06/05 00:39:17;;;;;;;1.93;1.72;;;;;;;20.80;63.15;100742.37;464419;114;923198;-76
2022/06/05 00:40:40;;;;;;;2.44;1.84;;;;;;;20.78;63.05;100736.27;465288;114;923002;-76
2022/06/05 00:42:06;;;;;;;2.76;2.06;;;;;;;20.75;62.99;100745.16;465283;114;923013;-76
2022/06/05 00:43:13;;;;;;;2.22;1.88;;;;;;;20.76;62.94;100751.53;465304;114;922549;-76
2022/06/05 00:44:19;;;;;;;2.44;1.91;;;;;;;20.75;62.87;100747.92;465299;114;922792;-76
2022/06/05 00:45:22;;;;;;;2.23;1.88;;;;;;;20.76;62.81;100748.76;465333;114;923064;-76
2022/06/05 00:46:26;;;;;;;2.16;1.98;;;;;;;20.79;62.53;100737.10;465486;114;922668;-76
2022/06/05 00:47:32;;;;;;;3.46;1.97;;;;;;;20.80;62.38;100738.77;464146;113;922851;-76
2022/06/05 00:48:35;;;;;;;2.11;1.86;;;;;;;20.80;62.32;100739.60;461681;114;924101;-76
2022/06/05 00:49:50;;;;;;;2.10;1.95;;;;;;;20.80;62.16;100738.77;460798;114;923000;-76
2022/06/05 00:50:53;;;;;;;3.37;2.04;;;;;;;20.80;62.08;100738.77;464997;114;923194;-74
2022/06/05 00:51:56;;;;;;;3.60;1.76;;;;;;;20.79;61.97;100732.39;462400;113;922914;-75
2022/06/05 00:53:02;;;;;;;1.64;1.54;;;;;;;20.78;61.79;100735.47;465473;114;922663;-75
2022/06/05 00:54:06;;;;;;;1.59;1.49;;;;;;;20.81;61.71;100732.95;457342;114;922546;-76
2022/06/05 00:55:10;;;;;;;3.47;1.71;;;;;;;20.80;61.62;100738.77;462110;112;922725;-75
2022/06/05 00:56:14;;;;;;;2.76;1.91;;;;;;;20.80;61.50;100736.00;463855;114;922542;-76
2022/06/05 00:57:18;;;;;;;1.61;1.37;;;;;;;20.79;61.35;100739.88;462565;114;922873;-75
2022/06/05 00:58:22;;;;;;;2.14;1.56;;;;;;;20.78;61.27;100735.47;464824;114;923006;-76
2022/06/05 00:59:26;;;;;;;2.69;1.74;;;;;;;20.77;61.13;100737.41;457192;116;922610;-76
2022/06/05 01:00:35;;;;;;;2.78;1.65;;;;;;;20.76;61.08;100737.67;457184;116;923103;-76
2022/06/05 01:01:40;;;;;;;1.57;1.47;;;;;;;20.75;61.08;100736.00;460855;113;923187;-75
2022/06/05 01:02:45;;;;;;;2.25;1.74;;;;;;;20.73;61.02;100736.27;466306;113;923026;-76
2022/06/05 01:03:48;;;;;;;2.54;1.80;;;;;;;20.74;60.90;100740.72;466230;113;922910;-75
2022/06/05 01:04:52;;;;;;;2.48;1.67;;;;;;;20.72;60.76;100742.12;466372;113;922628;-75
2022/06/05 01:05:55;;;;;;;1.83;1.70;;;;;;;20.71;60.62;100745.99;466441;113;922662;-76
2022/06/05 01:06:58;;;;;;;1.94;1.39;;;;;;;20.70;60.50;100738.78;457328;116;930325;-77
2022/06/05 01:08:01;;;;;;;1.79;1.39;;;;;;;20.71;60.46;100734.91;457311;116;923353;-76
2022/06/05 01:09:05;;;;;;;1.54;1.45;;;;;;;20.70;60.46;100747.09;457359;116;922974;-75
2022/06/05 01:10:11;;;;;;;1.84;1.51;;;;;;;20.69;60.39;100742.66;457272;116;922873;-75
2022/06/05 01:11:29;;;;;;;2.86;1.46;;;;;;;20.69;60.32;100742.66;457244;116;922636;-75
2022/06/05 01:12:42;;;;;;;2.18;1.56;;;;;;;20.69;60.28;100748.20;457001;116;922571;-76
2022/06/05 01:13:51;;;;;;;2.46;1.66;;;;;;;20.68;60.21;100740.98;458869;114;922880;-76
2022/06/05 01:14:58;;;;;;;2.09;1.58;;;;;;;20.66;60.16;100744.06;465257;114;923066;-76
2022/06/05 01:16:26;;;;;;;1.73;1.61;;;;;;;20.65;60.13;100747.93;464913;114;923096;-76
2022/06/05 01:17:52;;;;;;;1.86;1.52;;;;;;;20.65;60.07;100742.39;465272;114;923471;-76
2022/06/05 01:19:19;;;;;;;1.83;1.51;;;;;;;20.62;60.08;100733.81;456408;116;922950;-76
2022/06/05 01:20:29;;;;;;;1.94;1.45;;;;;;;20.59;60.08;100731.58;463967;114;922617;-76
2022/06/05 01:21:45;;;;;;;3.89;1.73;;;;;;;20.56;60.11;100732.16;464303;114;922826;-76
2022/06/05 01:23:03;;;;;;;3.26;1.71;;;;;;;20.55;60.09;100724.94;459845;114;922925;-77
2022/06/05 01:24:21;;;;;;;1.69;1.52;;;;;;;20.54;60.03;100731.58;457050;116;923225;-76
2022/06/05 01:25:47;;;;;;;1.94;1.73;;;;;;;20.52;60.02;100731.85;457053;116;922555;-76
2022/06/05 01:26:54;;;;;;;1.52;1.42;;;;;;;20.51;59.98;100732.95;457020;116;922608;-76
2022/06/05 01:28:01;;;;;;;2.14;1.60;;;;;;;20.49;59.98;100731.59;457053;116;923163;-76
2022/06/05 01:29:10;;;;;;;1.65;1.40;;;;;;;20.47;59.91;100723.55;456642;114;922986;-76
2022/06/05 01:30:17;;;;;;;1.51;1.41;;;;;;;20.48;59.73;100725.22;465250;114;923014;-75
2022/06/05 01:31:29;;;;;;;1.77;1.48;;;;;;;20.43;59.72;100722.44;465274;114;922831;-76
2022/06/05 01:32:42;;;;;;;3.24;1.69;;;;;;;20.44;59.69;100726.05;465242;114;922558;-75
2022/06/05 01:33:49;;;;;;;1.60;1.50;;;;;;;20.44;59.63;100720.51;465301;114;922655;-76
2022/06/05 01:35:14;;;;;;;1.51;1.41;;;;;;;20.56;59.50;100726.61;474384;110;947000;-75
2022/06/05 01:36:22;;;;;;;1.96;1.59;;;;;;;20.44;59.41;100726.05;465365;114;923102;-75
2022/06/05 01:37:40;;;;;;;2.47;1.70;;;;;;;20.42;59.42;100726.31;465298;114;922565;-75
2022/06/05 01:38:50;;;;;;;2.66;1.77;;;;;;;20.42;59.40;100719.94;464470;114;922557;-76
2022/06/05 01:40:09;;;;;;;1.44;1.34;;;;;;;20.41;59.34;100716.34;465081;114;923211;-76
2022/06/05 01:41:16;;;;;;;1.51;1.39;;;;;;;20.40;59.33;100721.05;465389;114;922654;-76
2022/06/05 01:42:31;;;;;;;2.28;1.55;;;;;;;20.41;59.27;100716.34;465289;114;923032;-76
2022/06/05 01:43:38;;;;;;;1.98;1.47;;;;;;;20.40;59.24;100707.20;464587;114;922505;-76
2022/06/05 01:44:45;;;;;;;2.07;1.71;;;;;;;20.39;59.20;100715.80;465249;114;922557;-76
2022/06/05 01:46:00;;;;;;;1.53;1.43;;;;;;;20.40;59.01;100712.73;465222;114;922534;-76
2022/06/05 01:47:07;;;;;;;2.31;1.41;;;;;;;20.40;58.90;100709.97;465342;114;922584;-75
2022/06/05 01:48:14;;;;;;;1.55;1.45;;;;;;;20.42;58.70;100714.41;465330;114;922589;-75
2022/06/05 01:49:23;;;;;;;1.47;1.37;;;;;;;20.37;58.87;100713.30;465251;114;923045;-76
2022/06/05 01:50:30;;;;;;;2.09;1.56;;;;;;;20.37;58.76;100704.16;465627;114;922798;-76
2022/06/05 01:51:36;;;;;;;1.96;1.49;;;;;;;20.37;58.69;100706.93;464805;114;922993;-75
2022/06/05 01:52:45;;;;;;;1.44;1.34;;;;;;;20.36;58.67;100705.27;464978;114;923249;-75
2022/06/05 01:53:52;;;;;;;2.51;1.68;;;;;;;20.36;58.59;100708.86;464837;114;922551;-76
2022/06/05 01:55:01;;;;;;;2.35;1.23;;;;;;;20.37;58.56;100707.77;465275;112;923110;-76
2022/06/05 01:56:08;;;;;;;1.33;1.22;;;;;;;20.37;58.46;100707.77;464185;114;922607;-76
2022/06/05 01:57:14;;;;;;;1.50;1.24;;;;;;;20.39;58.47;100708.33;463596;114;922649;-76
2022/06/05 01:58:21;;;;;;;4.85;1.36;;;;;;;20.37;58.43;100707.77;463582;114;923092;-75
2022/06/05 01:59:32;;;;;;;2.63;1.39;;;;;;;20.37;58.47;100709.70;463115;114;923129;-76
2022/06/05 02:00:35;;;;;;;3.26;1.36;;;;;;;20.38;58.26;100709.43;463526;114;922642;-76
2022/06/05 02:01:42;;;;;;;1.89;1.26;;;;;;;20.38;58.20;100709.43;462611;114;923034;-75
2022/06/05 02:03:06;;;;;;;1.51;1.40;;;;;;;20.39;58.16;100719.41;460607;115;922610;-76
2022/06/05 02:04:14;;;;;;;1.79;1.26;;;;;;;20.39;58.15;100713.03;460550;115;922980;-76
2022/06/05 02:05:23;;;;;;;1.39;1.28;;;;;;;20.38;58.15;100714.97;460633;115;923059;-76
2022/06/05 02:06:37;;;;;;;6.68;1.47;;;;;;;20.48;58.15;100716.07;476952;110;946853;-76
2022/06/05 02:07:56;;;;;;;2.61;1.56;;;;;;;20.36;58.03;100719.94;465441;113;922516;-76
2022/06/05 02:09:05;;;;;;;2.46;1.50;;;;;;;20.35;57.94;100721.05;464536;113;922854;-77
2022/06/05 02:10:15;;;;;;;1.81;1.40;;;;;;;20.36;57.85;100719.94;455935;116;922798;-76
2022/06/05 02:11:24;;;;;;;6.56;1.32;;;;;;;20.36;57.76;100721.87;455687;116;922719;-76
2022/06/05 02:12:27;;;;;;;2.22;1.27;;;;;;;20.37;57.66;100726.31;455990;116;923032;-77
2022/06/05 02:13:30;;;;;;;1.80;1.02;;;;;;;20.38;57.58;100719.67;456122;116;922618;-76
2022/06/05 02:14:34;;;;;;;1.70;1.50;;;;;;;20.39;57.51;100726.88;456190;116;922814;-77
2022/06/05 02:15:37;;;;;;;1.47;1.34;;;;;;;20.38;57.34;100722.44;456022;116;922543;-76
2022/06/05 02:16:42;;;;;;;2.44;1.31;;;;;;;20.38;57.34;100730.75;456023;116;930158;-76
2022/06/05 02:17:46;;;;;;;2.05;1.15;;;;;;;20.36;57.15;100728.25;455902;116;930344;-76
2022/06/05 02:18:50;;;;;;;1.77;1.25;;;;;;;20.37;57.23;100723.55;456088;116;923157;-76
2022/06/05 02:19:53;;;;;;;2.89;1.48;;;;;;;20.36;57.17;100731.02;456015;116;923160;-77
2022/06/05 02:20:56;;;;;;;1.59;1.37;;;;;;;20.34;57.14;100732.42;456090;116;922975;-76
2022/06/05 02:22:03;;;;;;;2.89;1.44;;;;;;;20.36;57.09;100728.25;456145;116;922736;-77
2022/06/05 02:23:09;;;;;;;1.45;1.35;;;;;;;20.39;57.06;100737.96;455917;116;922598;-76
2022/06/05 02:24:13;;;;;;;1.73;1.18;;;;;;;20.39;56.97;100735.19;455883;116;922550;-76
2022/06/05 02:25:19;;;;;;;1.24;1.16;;;;;;;20.39;56.80;100733.25;456015;116;922800;-76
2022/06/05 02:26:22;;;;;;;1.21;1.08;;;;;;;20.42;56.76;100736.56;455940;116;922861;-77
2022/06/05 02:27:26;;;;;;;1.36;1.20;;;;;;;20.43;56.59;100738.23;456231;116;922977;-76
2022/06/05 02:28:29;;;;;;;1.93;1.06;;;;;;;20.44;56.60;100735.19;456118;116;922950;-76
2022/06/05 02:29:32;;;;;;;1.96;0.95;;;;;;;20.45;56.48;100738.80;452659;116;930475;-76
2022/06/05 02:31:14;;;;;;;1.49;1.04;;;;;;;20.45;56.43;100741.56;449511;116;922606;-76
2022/06/05 02:32:33;;;;;;;2.80;1.28;;;;;;;20.42;56.46;100736.56;448268;118;922873;-76
2022/06/05 02:34:01;;;;;;;4.88;1.15;;;;;;;20.39;56.57;100749.88;448180;117;922629;-76
2022/06/05 02:35:23;;;;;;;1.87;1.28;;;;;;;20.39;56.59;100737.96;448224;118;922921;-76
2022/06/05 02:36:44;;;;;;;2.37;1.37;;;;;;;20.40;56.57;100745.14;448147;118;922548;-76
2022/06/05 02:38:16;;;;;;;2.13;1.27;;;;;;;20.40;56.54;100739.59;448183;117;923135;-76
2022/06/05 02:39:35;;;;;;;1.25;1.18;;;;;;;20.38;56.58;100737.12;429903;123;923278;-76
2022/06/05 02:40:49;;;;;;;1.53;1.11;;;;;;;20.49;56.41;100740.73;476978;110;946780;-76
2022/06/05 02:41:58;;;;;;;1.66;1.18;;;;;;;20.38;56.41;100733.52;465019;113;922473;-77
2022/06/05 02:43:08;;;;;;;1.27;1.08;;;;;;;20.36;56.41;100731.02;465000;113;922639;-76
2022/06/05 02:44:31;;;;;;;1.36;1.20;;;;;;;20.35;56.45;100728.52;464078;113;923076;-76
2022/06/05 02:45:46;;;;;;;1.26;1.14;;;;;;;20.35;56.36;100729.35;457269;116;922678;-76
2022/06/05 02:46:53;;;;;;;1.57;1.36;;;;;;;20.35;56.36;100726.58;457246;116;923050;-76
2022/06/05 02:48:21;;;;;;;1.37;1.11;;;;;;;20.34;56.38;100727.69;457209;115;922694;-76
2022/06/05 02:49:36;;;;;;;3.21;1.42;;;;;;;20.33;56.38;100726.05;457210;114;922631;-75
2022/06/05 02:50:49;;;;;;;1.97;1.36;;;;;;;20.34;56.37;100730.45;456949;115;923085;-76
2022/06/05 02:51:55;;;;;;;1.62;1.22;;;;;;;20.32;56.36;100731.85;457330;116;923049;-76
2022/06/05 02:53:05;;;;;;;2.85;1.65;;;;;;;20.29;56.23;100716.58;457305;116;922620;-75
2022/06/05 02:54:10;;;;;;;2.91;1.42;;;;;;;20.28;56.21;100727.95;457267;116;923128;-76
2022/06/05 02:55:18;;;;;;;1.59;1.27;;;;;;;20.28;56.08;100719.64;456795;115;923074;-76
2022/06/05 02:56:22;;;;;;;1.73;1.22;;;;;;;20.28;56.10;100722.41;455670;116;923032;-76
2022/06/05 02:57:25;;;;;;;2.38;1.24;;;;;;;20.28;56.12;100726.02;455582;116;922648;-76
2022/06/05 02:58:28;;;;;;;2.24;0.99;;;;;;;20.29;56.04;100719.34;455749;116;922981;-76
2022/06/05 02:59:31;;;;;;;2.50;1.50;;;;;;;20.29;56.08;100719.34;455711;116;923192;-76
2022/06/05 03:00:37;;;;;;;2.47;1.79;;;;;;;20.29;56.05;100724.87;454596;114;923397;-76
2022/06/05 03:04:24;;;;;;;3.72;1.66;;;;;;;20.33;56.03;100726.05;456117;115;923077;-75
2022/06/05 03:05:27;;;;;;;2.06;1.91;;;;;;;20.33;56.12;100720.51;456749;115;922631;-76
2022/06/05 03:06:31;;;;;;;2.05;1.57;;;;;;;20.36;56.06;100721.87;457338;115;922965;-76
2022/06/05 03:07:34;;;;;;;1.61;1.51;;;;;;;20.36;56.04;100724.65;457236;116;922925;-76
2022/06/05 03:08:37;;;;;;;7.19;1.87;;;;;;;20.37;55.98;100724.38;457343;116;922815;-76
2022/06/05 03:09:40;;;;;;;10.94;3.09;;;;;;;20.41;55.84;100721.87;457268;114;922931;-77
2022/06/05 03:10:44;;;;;;;2.06;1.52;;;;;;;20.43;55.78;100718.84;457281;116;923277;-76
2022/06/05 03:11:48;;;;;;;3.25;1.58;;;;;;;20.49;55.77;100709.42;457345;116;923036;-76
2022/06/05 03:12:51;;;;;;;1.43;1.24;;;;;;;20.48;55.76;100710.53;457435;116;923047;-75
2022/06/05 03:13:54;;;;;;;2.19;1.84;;;;;;;20.50;55.62;100722.17;457460;116;923053;-75
2022/06/05 03:15:01;;;;;;;2.51;1.59;;;;;;;20.50;55.40;100714.70;457475;116;923090;-77
2022/06/05 03:16:02;;;;;;;2.84;1.40;;;;;;;20.49;55.33;100713.03;457182;116;923129;-76
2022/06/05 03:17:05;;;;;;;2.44;1.39;;;;;;;20.51;55.38;100713.56;459834;115;922680;-76
2022/06/05 03:18:12;;;;;;;1.64;1.22;;;;;;;20.52;55.35;100715.23;460234;115;922941;-76
2022/06/05 03:19:15;;;;;;;2.61;1.19;;;;;;;20.53;55.32;100713.30;447373;115;922921;-76
2022/06/05 03:20:18;;;;;;;2.76;1.44;;;;;;;20.51;55.39;100702.48;446020;119;923090;-76
2022/06/05 03:21:22;;;;;;;2.23;1.31;;;;;;;20.53;55.40;100707.75;446025;119;922759;-76
2022/06/05 03:22:26;;;;;;;1.77;1.67;;;;;;;20.55;55.30;100708.32;445993;119;922702;-76
2022/06/05 03:23:31;;;;;;;1.41;1.28;;;;;;;20.58;55.19;100705.81;445857;119;922650;-76
2022/06/05 03:24:34;;;;;;;3.29;1.28;;;;;;;20.60;55.15;100702.77;449351;116;930355;-76
2022/06/05 03:25:40;;;;;;;2.53;1.32;;;;;;;20.61;55.06;100701.67;449503;117;930459;-76
2022/06/05 03:26:44;;;;;;;2.17;1.51;;;;;;;20.62;55.04;100695.02;455191;116;923040;-76
2022/06/05 03:27:47;;;;;;;1.84;1.29;;;;;;;20.64;55.05;100699.16;457401;115;922878;-76
2022/06/05 03:28:50;;;;;;;1.50;1.29;;;;;;;20.67;55.05;100695.85;456933;113;923084;-76
2022/06/05 03:29:53;;;;;;;1.94;1.26;;;;;;;20.70;55.02;100702.76;454838;115;922633;-76
2022/06/05 03:30:56;;;;;;;1.57;1.37;;;;;;;20.70;55.10;100694.45;458385;115;922512;-77
2022/06/05 03:31:59;;;;;;;1.84;1.51;;;;;;;20.69;55.09;100693.61;458307;115;922466;-76
2022/06/05 03:33:02;;;;;;;2.34;1.47;;;;;;;20.72;54.96;100692.23;458323;115;923099;-76
2022/06/05 03:34:05;;;;;;;1.89;1.47;;;;;;;20.74;54.87;100688.06;458296;115;922680;-76
2022/06/05 03:35:09;;;;;;;2.69;1.44;;;;;;;20.75;54.83;100686.95;458345;115;922552;-77
2022/06/05 03:36:16;;;;;;;1.40;1.22;;;;;;;20.77;54.79;100684.75;458201;115;922958;-77
2022/06/05 03:37:19;;;;;;;2.15;1.56;;;;;;;20.79;54.65;100684.45;458060;115;930279;-77
2022/06/05 03:38:22;;;;;;;3.45;1.97;;;;;;;20.83;54.65;100690.28;458188;115;922514;-76
2022/06/05 03:39:26;;;;;;;3.10;1.81;;;;;;;20.85;54.66;100683.33;458226;115;930408;-76
2022/06/05 03:40:30;;;;;;;3.11;1.98;;;;;;;20.89;54.67;100684.45;457218;115;923074;-77
2022/06/05 03:41:33;;;;;;;4.76;2.05;;;;;;;20.93;54.56;100684.71;455223;116;923025;-77
2022/06/05 03:42:36;;;;;;;3.79;1.71;;;;;;;20.94;54.63;100684.44;455258;116;930392;-77
2022/06/05 03:43:39;;;;;;;3.57;1.96;;;;;;;20.99;54.53;100686.36;455332;116;923125;-77
2022/06/05 03:44:43;;;;;;;2.42;2.06;;;;;;;21.03;54.29;100688.28;455241;116;922527;-76
2022/06/05 03:45:46;;;;;;;2.19;1.89;;;;;;;21.06;54.09;100689.68;455176;116;930293;-76
2022/06/05 03:46:51;;;;;;;3.11;1.78;;;;;;;21.07;54.01;100694.92;455351;116;922864;-76
2022/06/05 03:47:54;;;;;;;3.25;1.93;;;;;;;21.10;54.07;100693.55;455176;116;922623;-76
2022/06/05 03:48:57;;;;;;;2.07;1.75;;;;;;;21.12;53.85;100694.07;455362;116;923058;-77
2022/06/05 03:50:00;;;;;;;5.51;2.11;;;;;;;21.14;53.81;100692.72;455347;116;922919;-77
2022/06/05 03:51:09;;;;;;;1.94;1.76;;;;;;;21.16;53.82;100690.51;455325;116;922947;-77
2022/06/05 03:52:12;;;;;;;4.27;2.26;;;;;;;21.19;53.88;100689.09;454936;116;922642;-76
2022/06/05 03:53:15;;;;;;;7.55;2.34;;;;;;;21.21;53.85;100695.20;455210;116;922785;-76
2022/06/05 03:54:19;;;;;;;4.01;2.33;;;;;;;21.26;53.75;100697.13;455227;116;922988;-76
2022/06/05 03:55:23;;;;;;;3.21;2.07;;;;;;;21.29;53.68;100697.38;455198;116;922518;-77
2022/06/05 03:56:28;;;;;;;4.07;2.25;;;;;;;21.33;53.67;100697.66;449989;118;922528;-76
2022/06/05 03:57:31;;;;;;;3.01;2.20;;;;;;;21.37;53.59;100695.97;449958;118;923199;-76
2022/06/05 03:58:34;;;;;;;4.10;2.51;;;;;;;21.39;53.46;100702.08;441523;120;923395;-76
2022/06/05 03:59:37;;;;;;;3.58;2.11;;;;;;;21.40;53.28;100696.22;441779;118;922971;-76
2022/06/05 04:00:42;;;;;;;3.14;2.31;;;;;;;21.43;53.13;100692.06;450118;118;922564;-76
2022/06/05 04:01:45;;;;;;;2.46;2.15;;;;;;;21.45;53.05;100701.75;450014;118;922595;-76
2022/06/05 04:02:49;;;;;;;8.30;2.91;;;;;;;21.47;52.96;100693.98;450101;118;922596;-76
2022/06/05 04:03:52;;;;;;;4.21;2.49;;;;;;;21.48;52.92;100698.42;449993;118;922964;-76
2022/06/05 04:04:58;;;;;;;3.11;2.58;;;;;;;21.49;52.94;100696.48;449923;116;922968;-77
2022/06/05 04:06:06;;;;;;;3.20;2.25;;;;;;;21.50;52.87;100698.95;449822;118;930529;-77
2022/06/05 04:07:09;;;;;;;8.87;2.51;;;;;;;21.50;53.00;100701.72;449782;118;930377;-77
2022/06/05 04:08:17;;;;;;;3.25;2.71;;;;;;;21.51;53.20;100697.84;450027;118;922872;-76
2022/06/05 04:09:17;;;;;;;3.29;2.16;;;;;;;21.55;53.27;100698.13;449520;116;922574;-76
2022/06/05 04:10:20;;;;;;;3.08;2.30;;;;;;;21.56;53.28;100691.44;449997;118;923500;-76
2022/06/05 04:11:24;;;;;;;3.94;2.69;;;;;;;21.57;53.24;100691.16;450022;118;922604;-76
2022/06/05 04:12:27;;;;;;;2.56;2.32;;;;;;;21.58;53.20;100690.05;449980;118;923016;-76
2022/06/05 04:13:30;;;;;;;2.71;2.38;;;;;;;21.58;53.11;100687.27;450056;118;922606;-75
2022/06/05 04:14:33;;;;;;;4.06;2.26;;;;;;;21.60;53.01;100685.05;450009;116;922598;-76
2022/06/05 04:15:38;;;;;;;2.75;2.36;;;;;;;21.62;52.99;100679.20;450053;118;922536;-76
2022/06/05 04:16:42;;;;;;;3.23;2.32;;;;;;;21.63;52.92;100681.69;446870;118;922720;-76
2022/06/05 04:17:45;;;;;;;2.56;2.29;;;;;;;21.63;52.84;100676.14;443723;119;922907;-75
2022/06/05 04:18:49;;;;;;;4.11;2.38;;;;;;;21.64;52.79;100675.03;444033;119;930188;-76
2022/06/05 04:19:53;;;;;;;4.09;2.20;;;;;;;21.63;52.70;100673.37;443916;119;922250;-76
2022/06/05 04:20:56;;;;;;;3.53;2.13;;;;;;;21.63;52.70;100681.69;443882;119;922905;-77
2022/06/05 04:22:00;;;;;;;3.87;2.54;;;;;;;21.64;52.73;100676.98;444104;119;922337;-76
2022/06/05 04:23:03;;;;;;;3.48;2.08;;;;;;;21.64;52.72;100683.36;449445;118;922418;-76
2022/06/05 04:24:06;;;;;;;3.84;1.97;;;;;;;21.62;52.66;100674.48;450738;116;922223;-76
2022/06/05 04:25:14;;;;;;;3.04;2.31;;;;;;;21.62;52.63;100681.97;450777;118;930077;-76
2022/06/05 04:26:20;;;;;;;2.79;1.97;;;;;;;21.61;52.65;100678.36;450583;118;922499;-76
2022/06/05 04:27:23;;;;;;;3.58;1.78;;;;;;;21.61;52.63;100675.59;450545;118;922310;-76
2022/06/05 04:28:26;;;;;;;2.05;1.69;;;;;;;21.59;52.70;100675.06;450756;118;922282;-76
2022/06/05 04:29:29;;;;;;;4.06;1.88;;;;;;;21.60;52.75;100673.95;450576;116;922491;-77
2022/06/05 04:30:38;;;;;;;3.35;2.06;;;;;;;21.58;52.76;100667.02;453661;117;922314;-76
2022/06/05 04:31:45;;;;;;;3.53;2.55;;;;;;;21.58;52.72;100678.11;453568;117;922394;-76
2022/06/05 04:32:48;;;;;;;3.34;2.29;;;;;;;21.57;52.80;100666.19;453678;117;922352;-76
2022/06/05 04:33:53;;;;;;;3.44;2.80;;;;;;;21.57;52.81;100670.90;453996;117;922293;-76
2022/06/05 04:34:56;;;;;;;6.68;2.44;;;;;;;21.54;53.27;100663.99;453716;117;922456;-77
2022/06/05 04:36:01;;;;;;;4.68;2.57;;;;;;;21.54;53.27;100663.99;453732;117;922604;-76
2022/06/05 04:37:06;;;;;;;4.05;2.37;;;;;;;21.55;53.21;100668.44;453936;117;922722;-77
2022/06/05 04:38:11;;;;;;;3.58;2.23;;;;;;;21.55;53.35;100671.20;453764;117;922663;-76
2022/06/05 04:39:14;;;;;;;3.85;2.04;;;;;;;21.55;53.42;100662.05;453664;117;922141;-78
2022/06/05 04:40:17;;;;;;;3.79;2.36;;;;;;;21.56;53.52;100667.30;453572;117;930371;-78
2022/06/05 04:41:21;;;;;;;2.92;2.44;;;;;;;21.57;53.54;100663.41;459845;114;922352;-74
2022/06/05 04:42:23;;;;;;;4.00;2.84;;;;;;;21.61;53.56;100663.69;450296;118;922460;-77
2022/06/05 04:43:26;;;;;;;4.49;2.62;;;;;;;21.63;53.42;100665.05;450812;115;922289;-77
2022/06/05 04:44:29;;;;;;;2.65;2.09;;;;;;;21.64;53.43;100674.20;462203;115;922244;-77
2022/06/05 04:45:33;;;;;;;5.03;2.29;;;;;;;21.69;53.36;100663.07;462214;115;922190;-74
2022/06/05 04:46:36;;;;;;;5.78;2.55;;;;;;;21.72;53.32;100670.84;461963;115;922170;-77
2022/06/05 04:47:40;;;;;;;2.77;1.87;;;;;;;21.76;53.21;100669.14;462224;115;922704;-76
2022/06/05 04:48:43;;;;;;;5.41;2.32;;;;;;;21.78;53.10;100669.66;461988;115;922549;-75
2022/06/05 04:49:46;;;;;;;3.34;2.06;;;;;;;21.80;53.05;100664.67;462064;115;930259;-75
2022/06/05 04:50:49;;;;;;;2.91;1.79;;;;;;;21.82;52.97;100669.94;462167;115;922180;-75
2022/06/05 04:51:52;;;;;;;2.21;2.01;;;;;;;21.82;52.94;100673.55;462141;115;922287;-75
2022/06/05 04:52:55;;;;;;;2.10;1.90;;;;;;;21.83;52.90;100669.62;462176;115;922517;-75
2022/06/05 04:54:01;;;;;;;3.29;2.21;;;;;;;21.84;52.85;100676.02;462224;115;922221;-76
2022/06/05 04:55:04;;;;;;;2.91;2.35;;;;;;;21.85;52.79;100672.96;461973;115;922282;-76
2022/06/05 04:56:10;;;;;;;3.85;2.13;;;;;;;21.87;52.75;100669.91;459339;115;922242;-76
2022/06/05 04:57:13;;;;;;;2.92;2.11;;;;;;;21.87;52.70;100667.96;458113;116;922832;-75
2022/06/05 04:58:16;;;;;;;3.12;2.19;;;;;;;21.89;52.70;100668.48;458260;115;922720;-76
2022/06/05 04:59:19;;;;;;;2.41;2.06;;;;;;;21.91;52.74;100670.98;458096;114;922521;-75
2022/06/05 05:00:23;;;;;;;2.77;2.11;;;;;;;21.94;52.83;100671.25;457561;116;923084;-77
2022/06/05 05:01:28;;;;;;;3.15;2.17;;;;;;;22.00;52.65;100670.11;457571;115;922812;-76
2022/06/05 05:02:32;;;;;;;3.83;1.83;;;;;;;22.00;52.65;100670.11;457456;116;922591;-76
2022/06/05 05:03:35;;;;;;;2.27;2.06;;;;;;;22.04;52.89;100673.16;457592;115;922602;-76
2022/06/05 05:04:38;;;;;;;4.11;2.46;;;;;;;22.05;52.82;100667.30;457449;114;930322;-75
2022/06/05 05:05:41;;;;;;;5.83;2.71;;;;;;;22.08;52.67;100665.90;457569;115;922835;-76
2022/06/05 05:06:45;;;;;;;3.91;2.31;;;;;;;22.11;52.61;100670.06;457575;116;922554;-75
2022/06/05 05:07:48;;;;;;;3.91;2.39;;;;;;;22.13;52.46;100659.47;457467;115;923092;-76
2022/06/05 05:08:52;;;;;;;5.72;2.77;;;;;;;22.14;52.35;100661.14;457519;116;923024;-76
2022/06/05 05:09:55;;;;;;;3.19;2.66;;;;;;;22.13;52.35;100659.47;457363;114;923356;-76
2022/06/05 05:10:58;;;;;;;3.24;2.36;;;;;;;22.12;52.27;100661.42;457482;116;930500;-76
2022/06/05 05:12:01;;;;;;;3.74;2.68;;;;;;;22.10;52.33;100657.28;457538;116;922540;-76
2022/06/05 05:13:04;;;;;;;3.01;2.08;;;;;;;22.10;52.37;100665.62;457538;115;923093;-75